< < Back
Terminal Aerodrome Forecast


Current Version              Previous Versions:   1  2  3  4  5  6  7  8  9  

Terminal Aerodrome Forecast

518
FTUS42 KCHS 032258 AAB
TAFCHS
TAF AMD
KCHS 032258Z 0323/0418 14005KT P6SM VCSH SCT030 BKN060
      TEMPO 0323/0324 3SM SHRA BR SCT020 BKN030
     FM040000 15005KT P6SM VCSH SCT025 BKN045
      TEMPO 0403/0406 4SM -SHRA BR SCT020 BKN030
     FM040700 VRB03KT P6SM SCT020 BKN040
     FM041300 35005KT P6SM SCT040 BKN060=

Latest METAR

425
SAUS80 KWBC 032300
MTRCHS
METAR KCHS 032256Z 14005KT 10SM FEW035 SCT100 BKN200 28/23 A2990 RMK AO2
RAE17 SLP125 TCU DSNT SE-SW P0000 T02830233


USA.gov is the U.S. government's official web portal to all federal, state and local government web resources and services.